Minto, North Dakota
Current Conditions -  °F | °C
As of 3:58 PM on Monday 26 Jan 2015 (Local Time) from KRDR Reporting Station
Clear Clear  
Wind Chill: 24°   Ceiling: Unl
Heat Index: 33°   Visibility: 10mi
Dew Point: 27°   Wind: 13mph
Humidity: 76%   Direction: 10°N
Pressure: 29.94"   Gusts: NA
Location:  48.29°N, 97.37°W
Report Text: KRDR 262158Z AUTO 01011KT 10SM CLR 01/M03 A2994 RMK AO2 SLP154 T00081030
Loading
Personal Weather Stations






























Interactive Weather Map New forecast layout! Learn more

10-Day Weather Forecast

Advertisements
Track Severe Weather on mobile